Letterkenny Army Depot, Pennsylvania
Current Conditions -  °F | °C
As of 4:53 AM on Monday 20 Oct 2014 (Local Time) from KHGR Reporting Station
Clear Clear  
Wind Chill: 37°   Ceiling: Unl
Heat Index: 40°   Visibility: 10mi
Dew Point: 33°   Wind: 5mph
Humidity: 77%   Direction: 160°SSE
Pressure: 30.07"   Gusts: NA
Location:  39.9438°N, 77.6827°W
Report Text: KHGR 200853Z AUTO 16004KT 10SM CLR 04/01 A3007 RMK AO2 SLP196 T00440006 56006
Loading
Personal Weather Stations






























Interactive Weather Map
Tropical Storm Tracking
New forecast layout! Learn more

10-Day Weather Forecast

Advertisements
Track Severe Weather on mobile